Time;durP1;ratioP1;P1;durP2;ratioP2;P2;SDS_P1;SDS_P2;PMS_P1;PMS_P2;Temp;Humidity;BMP_temperature;BMP_pressure;BME280_temperature;BME280_humidity;BME280_pressure;Samples;Min_cycle;Max_cycle;Signal;HPM_P1;HPM_P2
2024/03/16 00:01:02;;;;;;;5.28;1.13;;;;;;;;;;4973050;28;20652;-89
2024/03/16 00:03:28;;;;;;;1.88;0.70;;;;;;;;;;4974084;28;20184;-90
2024/03/16 00:05:58;;;;;;;1.10;0.70;;;;;;;;;;4974318;28;20199;-90
2024/03/16 00:08:24;;;;;;;1.00;0.70;;;;;;;;;;4974733;28;20641;-90
2024/03/16 00:10:50;;;;;;;2.40;1.15;;;;;;;;;;4974956;28;20215;-90
2024/03/16 00:13:16;;;;;;;2.65;0.80;;;;;;;;;;4973278;28;20271;-90
2024/03/16 00:15:42;;;;;;;4.43;0.90;;;;;;;;;;4978562;28;20290;-89
2024/03/16 00:18:09;;;;;;;1.88;0.82;;;;;;;;;;4967938;28;20275;-90
2024/03/16 00:20:40;;;;;;;1.52;0.80;;;;;;;;;;4967317;28;20589;-90
2024/03/16 00:23:09;;;;;;;9.55;1.30;;;;;;;;;;4984904;28;20190;-90
2024/03/16 00:25:37;;;;;;;2.28;0.70;;;;;;;;;;4973296;28;20190;-91
2024/03/16 00:28:07;;;;;;;1.55;0.80;;;;;;;;;;4946111;28;20203;-91
2024/03/16 00:30:33;;;;;;;2.30;0.70;;;;;;;;;;4974270;28;20231;-93
2024/03/16 00:32:59;;;;;;;5.65;1.25;;;;;;;;;;4973490;28;20187;-94
2024/03/16 00:35:28;;;;;;;3.37;0.97;;;;;;;;;;4972566;28;20190;-92
2024/03/16 00:37:54;;;;;;;3.03;0.88;;;;;;;;;;4948373;28;20559;-95
2024/03/16 00:40:20;;;;;;;1.55;0.75;;;;;;;;;;4975847;28;20199;-94
2024/03/16 00:42:46;;;;;;;3.00;0.75;;;;;;;;;;4977874;28;20263;-93
2024/03/16 00:45:13;;;;;;;2.10;0.70;;;;;;;;;;4991278;28;20195;-95
2024/03/16 00:47:39;;;;;;;2.20;0.80;;;;;;;;;;4977504;28;20208;-92
2024/03/16 00:50:05;;;;;;;2.30;0.70;;;;;;;;;;4974755;28;20219;-91
2024/03/16 00:52:31;;;;;;;3.83;0.88;;;;;;;;;;4945369;28;20192;-90
2024/03/16 00:54:57;;;;;;;1.77;0.70;;;;;;;;;;4967501;28;20184;-90
2024/03/16 00:57:24;;;;;;;3.38;0.90;;;;;;;;;;4972829;28;20236;-93
2024/03/16 00:59:50;;;;;;;1.70;0.77;;;;;;;;;;4973360;28;20184;-92
2024/03/16 01:02:16;;;;;;;1.00;0.70;;;;;;;;;;4975191;28;20211;-92
2024/03/16 01:04:42;;;;;;;1.75;0.70;;;;;;;;;;4971950;28;20682;-92
2024/03/16 01:07:08;;;;;;;6.40;0.73;;;;;;;;;;4979044;28;20200;-92
2024/03/16 01:09:34;;;;;;;2.05;1.05;;;;;;;;;;4971268;28;20436;-94
2024/03/16 01:12:00;;;;;;;1.42;0.90;;;;;;;;;;4972064;28;20259;-94
2024/03/16 01:14:26;;;;;;;1.33;0.85;;;;;;;;;;4968836;28;20185;-93
2024/03/16 01:16:52;;;;;;;1.75;0.80;;;;;;;;;;4980355;28;20196;-94
2024/03/16 01:19:18;;;;;;;2.83;0.90;;;;;;;;;;4973773;28;20653;-94
2024/03/16 01:21:44;;;;;;;4.57;0.93;;;;;;;;;;4980138;28;21078;-93
2024/03/16 01:24:10;;;;;;;2.13;1.08;;;;;;;;;;4960040;28;20200;-94
2024/03/16 01:26:37;;;;;;;3.50;1.23;;;;;;;;;;4977247;28;20185;-87
2024/03/16 01:29:10;;;;;;;2.88;1.33;;;;;;;;;;4974105;28;20205;-88
2024/03/16 01:31:51;;;;;;;4.53;1.00;;;;;;;;;;4937945;29;20223;-88
2024/03/16 01:34:17;;;;;;;2.40;1.00;;;;;;;;;;4956036;29;20236;-88
2024/03/16 01:36:43;;;;;;;4.15;1.15;;;;;;;;;;4956121;29;20211;-89
2024/03/16 01:39:15;;;;;;;4.47;0.90;;;;;;;;;;4955613;29;20189;-88
2024/03/16 01:41:41;;;;;;;3.47;1.23;;;;;;;;;;4955812;29;20476;-89
2024/03/16 01:44:11;;;;;;;1.40;0.90;;;;;;;;;;4957221;28;20177;-89
2024/03/16 01:46:39;;;;;;;8.55;2.33;;;;;;;;;;4964897;28;20700;-90
2024/03/16 01:49:09;;;;;;;6.47;1.33;;;;;;;;;;4956769;28;20190;-90
2024/03/16 01:51:38;;;;;;;3.70;1.30;;;;;;;;;;4947557;29;20228;-90
2024/03/16 01:54:04;;;;;;;4.68;1.38;;;;;;;;;;4952862;29;20193;-91
2024/03/16 01:59:33;;;;;;;5.55;1.77;;;;;;;;;;4957821;29;20180;-90
2024/03/16 02:05:16;;;;;;;3.88;1.40;;;;;;;;;;4975885;28;20256;-90
2024/03/16 02:08:11;;;;;;;9.30;3.17;;;;;;;;;;4965337;28;20169;-91
2024/03/16 02:10:37;;;;;;;4.05;1.70;;;;;;;;;;4959470;28;20212;-92
2024/03/16 02:13:03;;;;;;;8.10;2.10;;;;;;;;;;4972222;28;20192;-92
2024/03/16 02:15:29;;;;;;;3.30;1.60;;;;;;;;;;4976927;28;20190;-92
2024/03/16 02:17:55;;;;;;;4.20;1.60;;;;;;;;;;4975604;28;20270;-93
2024/03/16 02:20:21;;;;;;;7.32;1.98;;;;;;;;;;4963197;28;20192;-92
2024/03/16 02:22:49;;;;;;;1.70;1.27;;;;;;;;;;4971366;28;20234;-93
2024/03/16 02:25:15;;;;;;;6.90;1.73;;;;;;;;;;4944478;28;20188;-93
2024/03/16 02:27:43;;;;;;;9.90;1.50;;;;;;;;;;4955670;28;20235;-93
2024/03/16 02:30:14;;;;;;;3.63;1.38;;;;;;;;;;4970704;28;20204;-94
2024/03/16 02:32:40;;;;;;;2.97;1.80;;;;;;;;;;4979274;28;20188;-93
2024/03/16 02:35:08;;;;;;;5.45;2.38;;;;;;;;;;4968067;28;20271;-93
2024/03/16 02:37:34;;;;;;;12.50;2.13;;;;;;;;;;4960521;28;20184;-93
2024/03/16 02:40:00;;;;;;;4.22;1.70;;;;;;;;;;4976891;28;20667;-93
2024/03/16 02:42:29;;;;;;;3.22;2.10;;;;;;;;;;4965705;28;20196;-93
2024/03/16 02:44:55;;;;;;;7.22;2.38;;;;;;;;;;4958884;28;20169;-92
2024/03/16 02:47:21;;;;;;;4.75;2.70;;;;;;;;;;4971601;28;20191;-92
2024/03/16 02:49:50;;;;;;;7.32;1.95;;;;;;;;;;4963132;28;20577;-93
2024/03/16 02:52:16;;;;;;;12.75;2.80;;;;;;;;;;4983308;28;20619;-93
2024/03/16 02:54:43;;;;;;;6.35;3.08;;;;;;;;;;4959153;28;20598;-92
2024/03/16 02:57:09;;;;;;;7.88;3.72;;;;;;;;;;4970631;28;20183;-93
2024/03/16 02:59:36;;;;;;;9.35;3.03;;;;;;;;;;4970003;28;20184;-92
2024/03/16 03:02:02;;;;;;;8.68;3.20;;;;;;;;;;4966191;28;20184;-93
2024/03/16 03:04:28;;;;;;;7.88;3.10;;;;;;;;;;4969386;28;20188;-92
2024/03/16 03:06:54;;;;;;;12.45;4.28;;;;;;;;;;4970996;28;20587;-93
2024/03/16 03:09:20;;;;;;;6.90;3.90;;;;;;;;;;4966949;28;20211;-92
2024/03/16 03:11:49;;;;;;;5.88;3.88;;;;;;;;;;4966981;28;20250;-92
2024/03/16 03:14:15;;;;;;;7.07;5.35;;;;;;;;;;4959372;28;20315;-92
2024/03/16 03:16:44;;;;;;;10.60;5.05;;;;;;;;;;4966469;28;20180;-93
2024/03/16 03:19:10;;;;;;;12.05;5.03;;;;;;;;;;4972973;28;20180;-94
2024/03/16 03:21:36;;;;;;;9.57;5.97;;;;;;;;;;4941672;28;20195;-92
2024/03/16 03:24:03;;;;;;;12.00;7.50;;;;;;;;;;4975929;28;20606;-93
2024/03/16 03:26:29;;;;;;;12.07;5.60;;;;;;;;;;4972225;28;20180;-93
2024/03/16 03:28:55;;;;;;;11.35;6.50;;;;;;;;;;4957542;28;20184;-92
2024/03/16 03:31:21;;;;;;;13.68;6.57;;;;;;;;;;4974539;28;20212;-93
2024/03/16 03:33:47;;;;;;;10.65;6.65;;;;;;;;;;4972452;28;20308;-93
2024/03/16 03:36:16;;;;;;;13.07;7.75;;;;;;;;;;4973818;28;20240;-94
2024/03/16 03:38:43;;;;;;;12.18;6.95;;;;;;;;;;4978840;28;20183;-93
2024/03/16 03:41:09;;;;;;;11.50;7.95;;;;;;;;;;4976086;28;20183;-93
2024/03/16 03:43:37;;;;;;;13.95;6.32;;;;;;;;;;4971655;28;20188;-93
2024/03/16 03:46:04;;;;;;;13.27;6.38;;;;;;;;;;4973601;28;20552;-93
2024/03/16 03:48:41;;;;;;;14.77;6.93;;;;;;;;;;4968925;28;20172;-93
2024/03/16 03:51:07;;;;;;;19.00;6.75;;;;;;;;;;4979631;28;20688;-93
2024/03/16 03:53:33;;;;;;;9.18;5.22;;;;;;;;;;4980282;28;20218;-92
2024/03/16 03:56:00;;;;;;;10.15;6.32;;;;;;;;;;4972968;28;20185;-94
2024/03/16 03:58:26;;;;;;;13.25;5.68;;;;;;;;;;4981471;28;20177;-93
2024/03/16 04:00:52;;;;;;;10.95;5.80;;;;;;;;;;4972083;28;20180;-93
2024/03/16 04:03:18;;;;;;;8.93;5.60;;;;;;;;;;4976565;28;20687;-93
2024/03/16 04:05:44;;;;;;;10.30;5.17;;;;;;;;;;4975120;28;20180;-94
2024/03/16 04:08:10;;;;;;;9.00;5.78;;;;;;;;;;4961250;28;20432;-93
2024/03/16 04:10:37;;;;;;;11.68;5.10;;;;;;;;;;4980227;28;20283;-94
2024/03/16 04:13:03;;;;;;;9.55;5.30;;;;;;;;;;4969582;28;20196;-95
2024/03/16 04:15:29;;;;;;;8.32;4.65;;;;;;;;;;4971826;28;20180;-93
2024/03/16 04:17:56;;;;;;;10.60;6.18;;;;;;;;;;4977959;28;20263;-93
2024/03/16 04:20:22;;;;;;;13.10;5.35;;;;;;;;;;4972992;28;20184;-93
2024/03/16 04:22:48;;;;;;;9.50;5.38;;;;;;;;;;4979984;28;20184;-93
2024/03/16 04:25:14;;;;;;;13.65;5.80;;;;;;;;;;4972312;28;20192;-93
2024/03/16 04:27:41;;;;;;;8.40;5.10;;;;;;;;;;4973073;28;20180;-93
2024/03/16 04:30:08;;;;;;;9.27;5.82;;;;;;;;;;4972927;28;20256;-93
2024/03/16 04:32:34;;;;;;;8.55;5.80;;;;;;;;;;4957522;28;20258;-93
2024/03/16 04:35:01;;;;;;;15.82;5.22;;;;;;;;;;4966021;28;20229;-92
2024/03/16 04:37:27;;;;;;;8.77;4.55;;;;;;;;;;4973161;28;20265;-92
2024/03/16 04:39:54;;;;;;;8.88;5.72;;;;;;;;;;4968989;28;20196;-92
2024/03/16 04:42:20;;;;;;;7.82;5.03;;;;;;;;;;4965517;28;20191;-92
2024/03/16 04:44:46;;;;;;;7.80;4.73;;;;;;;;;;4944510;28;20557;-92
2024/03/16 04:47:13;;;;;;;10.65;4.68;;;;;;;;;;4968922;28;20505;-92
2024/03/16 04:49:39;;;;;;;13.50;5.30;;;;;;;;;;4974335;28;20236;-92
2024/03/16 04:52:05;;;;;;;10.17;4.40;;;;;;;;;;4965788;28;20211;-89
2024/03/16 04:54:31;;;;;;;8.40;4.75;;;;;;;;;;4977112;28;20424;-89
2024/03/16 04:56:57;;;;;;;9.27;4.10;;;;;;;;;;4971520;28;20216;-89
2024/03/16 04:59:23;;;;;;;11.00;5.25;;;;;;;;;;4971240;28;20200;-90
2024/03/16 05:01:49;;;;;;;11.80;4.60;;;;;;;;;;4974418;28;20297;-90
2024/03/16 05:04:15;;;;;;;12.43;6.38;;;;;;;;;;4972743;28;20196;-91
2024/03/16 05:06:41;;;;;;;11.00;5.87;;;;;;;;;;4976677;28;20187;-90
2024/03/16 05:09:09;;;;;;;9.63;5.13;;;;;;;;;;4977302;28;20499;-92
2024/03/16 05:11:44;;;;;;;13.20;5.43;;;;;;;;;;4977142;28;20208;-91
2024/03/16 05:14:10;;;;;;;8.85;5.97;;;;;;;;;;4976862;28;20202;-92
2024/03/16 05:16:37;;;;;;;10.23;5.85;;;;;;;;;;4977155;28;20187;-92
2024/03/16 05:19:04;;;;;;;7.78;4.90;;;;;;;;;;4965661;28;20541;-93
2024/03/16 05:21:30;;;;;;;14.98;6.35;;;;;;;;;;4971937;28;20218;-94
2024/03/16 05:23:57;;;;;;;11.13;6.50;;;;;;;;;;4968563;28;20544;-94
2024/03/16 05:26:23;;;;;;;13.18;6.30;;;;;;;;;;4977024;28;20181;-95
2024/03/16 05:28:50;;;;;;;12.75;6.68;;;;;;;;;;4964866;28;20228;-95
2024/03/16 05:31:22;;;;;;;12.40;6.90;;;;;;;;;;4987545;28;20247;-95
2024/03/16 05:33:51;;;;;;;10.88;6.63;;;;;;;;;;4995373;28;20264;-96
2024/03/16 05:36:17;;;;;;;11.82;6.47;;;;;;;;;;4982698;28;20244;-95
2024/03/16 05:38:46;;;;;;;12.43;7.05;;;;;;;;;;5001795;28;20188;-96
2024/03/16 05:41:22;;;;;;;8.50;6.60;;;;;;;;;;4966687;28;20177;-95
2024/03/16 05:43:52;;;;;;;13.45;6.40;;;;;;;;;;4975407;28;20196;-95
2024/03/16 05:46:20;;;;;;;10.95;6.45;;;;;;;;;;4988186;28;20180;-96
2024/03/16 05:48:47;;;;;;;9.95;6.28;;;;;;;;;;4971467;28;20252;-95
2024/03/16 05:51:13;;;;;;;13.55;7.43;;;;;;;;;;4970159;28;20236;-95
2024/03/16 05:53:40;;;;;;;10.98;7.13;;;;;;;;;;4974677;28;20196;-95
2024/03/16 05:56:06;;;;;;;13.73;6.97;;;;;;;;;;4958485;28;20231;-95
2024/03/16 05:58:32;;;;;;;19.17;7.72;;;;;;;;;;4947539;29;20690;-95
2024/03/16 06:01:00;;;;;;;10.23;6.70;;;;;;;;;;4976268;28;20191;-95
2024/03/16 06:03:27;;;;;;;11.52;7.25;;;;;;;;;;4977381;28;20216;-95
2024/03/16 06:05:53;;;;;;;9.52;6.75;;;;;;;;;;4966130;28;20169;-95
2024/03/16 06:08:19;;;;;;;10.05;6.95;;;;;;;;;;4970318;28;20235;-95
2024/03/16 06:10:45;;;;;;;16.20;8.02;;;;;;;;;;4967548;28;20272;-93
2024/03/16 06:13:11;;;;;;;12.63;6.80;;;;;;;;;;4961913;28;20652;-93
2024/03/16 06:15:39;;;;;;;12.30;7.00;;;;;;;;;;4968098;28;20443;-92
2024/03/16 06:18:05;;;;;;;11.00;5.85;;;;;;;;;;4962195;28;20441;-92
2024/03/16 06:20:31;;;;;;;16.88;6.93;;;;;;;;;;4964603;28;20200;-91
2024/03/16 06:22:57;;;;;;;11.33;7.17;;;;;;;;;;4967107;28;20185;-90
2024/03/16 06:25:24;;;;;;;10.02;6.88;;;;;;;;;;4970270;28;20486;-91
2024/03/16 06:27:50;;;;;;;10.65;6.32;;;;;;;;;;4965620;28;20252;-92
2024/03/16 06:30:16;;;;;;;13.35;6.82;;;;;;;;;;4966310;28;20630;-93
2024/03/16 06:35:27;;;;;;;16.30;9.38;;;;;;;;;;4955613;28;20591;-94
2024/03/16 06:37:53;;;;;;;12.20;8.07;;;;;;;;;;4973458;28;20185;-91
2024/03/16 06:40:20;;;;;;;14.93;9.88;;;;;;;;;;4967264;28;20432;-94
2024/03/16 06:42:47;;;;;;;13.95;9.20;;;;;;;;;;4956978;28;20185;-93
2024/03/16 06:45:16;;;;;;;15.65;9.95;;;;;;;;;;4957580;28;20185;-95
2024/03/16 06:47:42;;;;;;;18.58;10.50;;;;;;;;;;4974687;28;20208;-96
2024/03/16 06:50:10;;;;;;;21.20;9.23;;;;;;;;;;4972551;28;20268;-94
2024/03/16 06:52:36;;;;;;;18.10;11.60;;;;;;;;;;4975891;28;20181;-94
2024/03/16 06:55:03;;;;;;;23.42;11.50;;;;;;;;;;4971371;28;20185;-94
2024/03/16 06:57:29;;;;;;;17.45;10.85;;;;;;;;;;4952716;28;20177;-94
2024/03/16 06:59:55;;;;;;;18.50;10.50;;;;;;;;;;4968654;28;20292;-94
2024/03/16 07:02:21;;;;;;;19.67;11.00;;;;;;;;;;4942203;29;20169;-94
2024/03/16 07:04:50;;;;;;;20.17;10.35;;;;;;;;;;4970009;28;20177;-88
2024/03/16 07:07:16;;;;;;;16.35;11.85;;;;;;;;;;4964976;28;20272;-89
2024/03/16 07:09:42;;;;;;;21.85;10.77;;;;;;;;;;4969411;28;20188;-95
2024/03/16 07:12:08;;;;;;;16.77;9.68;;;;;;;;;;4977816;28;20219;-92
2024/03/16 07:14:34;;;;;;;11.73;6.75;;;;;;;;;;4967137;28;20186;-90
2024/03/16 07:17:00;;;;;;;13.85;8.68;;;;;;;;;;4976566;28;20192;-93
2024/03/16 07:19:28;;;;;;;12.70;8.27;;;;;;;;;;4943223;29;20181;-93
2024/03/16 07:21:59;;;;;;;17.88;8.25;;;;;;;;;;4976441;28;20213;-92
2024/03/16 07:24:25;;;;;;;15.63;8.93;;;;;;;;;;4965181;28;20176;-92
2024/03/16 07:26:51;;;;;;;19.30;11.25;;;;;;;;;;4969785;28;20177;-93
2024/03/16 07:29:17;;;;;;;15.45;10.20;;;;;;;;;;4946915;29;20667;-93
2024/03/16 07:31:44;;;;;;;19.98;10.90;;;;;;;;;;4975445;28;20213;-92
2024/03/16 07:34:10;;;;;;;24.05;14.75;;;;;;;;;;4969454;28;20239;-93
2024/03/16 07:36:36;;;;;;;21.40;12.33;;;;;;;;;;4979496;28;20256;-92
2024/03/16 07:39:02;;;;;;;22.85;12.27;;;;;;;;;;4968038;28;20511;-92
2024/03/16 07:41:28;;;;;;;21.15;12.32;;;;;;;;;;4975000;28;20181;-92
2024/03/16 07:43:54;;;;;;;23.65;13.40;;;;;;;;;;4966686;28;20203;-91
2024/03/16 07:46:20;;;;;;;20.80;14.30;;;;;;;;;;4972067;28;20277;-89
2024/03/16 07:48:46;;;;;;;23.23;14.23;;;;;;;;;;4975339;28;20407;-90
2024/03/16 07:51:14;;;;;;;17.85;13.27;;;;;;;;;;4966270;28;20212;-92
2024/03/16 07:53:42;;;;;;;23.25;14.02;;;;;;;;;;4973239;28;20266;-91
2024/03/16 07:56:11;;;;;;;22.63;14.50;;;;;;;;;;4980178;28;20230;-92
2024/03/16 07:58:40;;;;;;;16.73;12.35;;;;;;;;;;4961834;28;20188;-92
2024/03/16 08:01:08;;;;;;;15.98;11.68;;;;;;;;;;4972151;28;20190;-92
2024/03/16 08:03:34;;;;;;;17.88;11.85;;;;;;;;;;4974288;28;20528;-91
2024/03/16 08:06:06;;;;;;;19.80;11.30;;;;;;;;;;4972751;28;20180;-90
2024/03/16 08:08:33;;;;;;;19.20;11.05;;;;;;;;;;4969667;28;20189;-91
2024/03/16 08:10:59;;;;;;;13.90;10.43;;;;;;;;;;4960091;28;20204;-90
2024/03/16 08:13:25;;;;;;;15.00;11.07;;;;;;;;;;4966240;28;20180;-89
2024/03/16 08:15:52;;;;;;;13.85;8.82;;;;;;;;;;4973292;28;20208;-88
2024/03/16 08:18:18;;;;;;;12.68;7.88;;;;;;;;;;4972037;28;20196;-88
2024/03/16 08:20:44;;;;;;;11.60;7.85;;;;;;;;;;4973675;28;20182;-87
2024/03/16 08:23:10;;;;;;;10.43;6.82;;;;;;;;;;4959856;28;20184;-89
2024/03/16 08:25:36;;;;;;;8.23;6.25;;;;;;;;;;4966811;28;20189;-90
2024/03/16 08:28:02;;;;;;;7.32;4.95;;;;;;;;;;4967558;28;20185;-87
2024/03/16 08:30:28;;;;;;;5.72;4.07;;;;;;;;;;4964199;28;20200;-90
2024/03/16 08:32:56;;;;;;;7.27;4.30;;;;;;;;;;4958758;28;20254;-87
2024/03/16 08:35:22;;;;;;;5.18;3.50;;;;;;;;;;4958596;28;20451;-87
2024/03/16 08:37:48;;;;;;;5.93;3.27;;;;;;;;;;4943446;28;20652;-88
2024/03/16 08:40:15;;;;;;;5.30;3.80;;;;;;;;;;4967101;28;20455;-88
2024/03/16 08:42:41;;;;;;;4.82;2.63;;;;;;;;;;4974993;28;20501;-87
2024/03/16 08:45:08;;;;;;;4.53;4.07;;;;;;;;;;4972379;28;20188;-86
2024/03/16 08:47:34;;;;;;;7.03;3.10;;;;;;;;;;4972477;28;20177;-87
2024/03/16 08:50:00;;;;;;;5.63;3.28;;;;;;;;;;4968899;28;20181;-85
2024/03/16 08:52:27;;;;;;;4.43;3.33;;;;;;;;;;4955061;28;20185;-87
2024/03/16 08:54:55;;;;;;;4.88;3.40;;;;;;;;;;4960296;28;20415;-87
2024/03/16 08:57:22;;;;;;;4.47;2.80;;;;;;;;;;4973153;28;20188;-87
2024/03/16 08:59:48;;;;;;;6.55;3.13;;;;;;;;;;4951530;28;20178;-85
2024/03/16 09:02:14;;;;;;;7.10;3.55;;;;;;;;;;4969137;28;20180;-86
2024/03/16 09:04:40;;;;;;;3.83;2.40;;;;;;;;;;4973357;28;20242;-86
2024/03/16 09:07:06;;;;;;;7.60;3.73;;;;;;;;;;4967318;28;20435;-86
2024/03/16 09:09:32;;;;;;;5.57;4.05;;;;;;;;;;4975077;28;20859;-86
2024/03/16 09:11:58;;;;;;;6.90;3.53;;;;;;;;;;4970577;28;20299;-84
2024/03/16 09:14:24;;;;;;;6.70;3.03;;;;;;;;;;4971732;28;20420;-86
2024/03/16 09:16:50;;;;;;;4.95;3.90;;;;;;;;;;4980598;28;20483;-84
2024/03/16 09:19:16;;;;;;;5.53;2.93;;;;;;;;;;4949557;28;20180;-84
2024/03/16 09:21:42;;;;;;;3.57;2.50;;;;;;;;;;4968673;28;20439;-84
2024/03/16 09:24:08;;;;;;;5.50;3.30;;;;;;;;;;4956051;28;20518;-85
2024/03/16 09:26:34;;;;;;;3.20;2.90;;;;;;;;;;4971516;28;20428;-84
2024/03/16 09:29:00;;;;;;;2.00;1.42;;;;;;;;;;4964829;28;20413;-83
2024/03/16 09:31:26;;;;;;;2.60;2.10;;;;;;;;;;4973101;28;20223;-83
2024/03/16 09:33:52;;;;;;;5.88;2.83;;;;;;;;;;4973282;28;20495;-83
2024/03/16 09:36:18;;;;;;;6.97;1.92;;;;;;;;;;4965740;28;20271;-84
2024/03/16 09:38:44;;;;;;;4.23;1.73;;;;;;;;;;4974328;28;20212;-83
2024/03/16 09:41:17;;;;;;;3.55;1.80;;;;;;;;;;4966619;28;20455;-82
2024/03/16 09:43:44;;;;;;;3.95;2.20;;;;;;;;;;4970232;28;20192;-83
2024/03/16 09:46:10;;;;;;;6.18;1.85;;;;;;;;;;4975227;28;20649;-82
2024/03/16 09:48:37;;;;;;;7.55;2.55;;;;;;;;;;4955537;28;20609;-82
2024/03/16 09:51:04;;;;;;;2.42;2.10;;;;;;;;;;4942899;28;20672;-82
2024/03/16 09:53:33;;;;;;;7.38;2.13;;;;;;;;;;4967073;28;20177;-82
2024/03/16 09:56:04;;;;;;;6.15;2.30;;;;;;;;;;4970687;28;20201;-83
2024/03/16 09:58:31;;;;;;;3.35;2.50;;;;;;;;;;4970439;28;20176;-82
2024/03/16 10:01:00;;;;;;;4.80;1.98;;;;;;;;;;4969073;28;20617;-82
2024/03/16 10:03:26;;;;;;;5.15;3.63;;;;;;;;;;4974264;28;20188;-82
2024/03/16 10:05:52;;;;;;;7.90;2.80;;;;;;;;;;4968166;28;20662;-82
2024/03/16 10:08:18;;;;;;;2.93;1.70;;;;;;;;;;4971784;28;20412;-82
2024/03/16 10:10:44;;;;;;;4.00;2.05;;;;;;;;;;4956055;28;20467;-82
2024/03/16 10:13:11;;;;;;;5.25;3.13;;;;;;;;;;4958363;28;20187;-82
2024/03/16 10:15:47;;;;;;;2.85;1.10;;;;;;;;;;4968092;28;20176;-82
2024/03/16 10:18:16;;;;;;;1.90;1.40;;;;;;;;;;4970709;28;20180;-82
2024/03/16 10:20:46;;;;;;;2.10;1.20;;;;;;;;;;4972804;28;20204;-82
2024/03/16 10:23:15;;;;;;;2.33;1.40;;;;;;;;;;4975829;28;20192;-82
2024/03/16 10:25:44;;;;;;;1.58;1.27;;;;;;;;;;4969513;28;20242;-82
2024/03/16 10:28:14;;;;;;;2.50;1.20;;;;;;;;;;4972863;28;20210;-82
2024/03/16 10:30:40;;;;;;;3.17;2.17;;;;;;;;;;4965727;28;20684;-82
2024/03/16 10:33:07;;;;;;;4.50;1.60;;;;;;;;;;4969916;28;20203;-81
2024/03/16 10:35:34;;;;;;;5.88;2.08;;;;;;;;;;4955224;28;20530;-82
2024/03/16 10:38:03;;;;;;;4.07;1.67;;;;;;;;;;4964963;28;20215;-81
2024/03/16 10:40:29;;;;;;;6.97;2.40;;;;;;;;;;4962032;28;20283;-81
2024/03/16 10:42:58;;;;;;;3.05;2.65;;;;;;;;;;4973801;28;20172;-81
2024/03/16 10:45:26;;;;;;;8.23;2.83;;;;;;;;;;4970927;28;20212;-82
2024/03/16 10:47:53;;;;;;;5.68;3.08;;;;;;;;;;4967291;28;20199;-82
2024/03/16 10:50:20;;;;;;;5.00;2.83;;;;;;;;;;4936933;28;20714;-84
2024/03/16 10:52:47;;;;;;;2.72;2.22;;;;;;;;;;4958527;28;20191;-82
2024/03/16 10:55:15;;;;;;;10.27;2.53;;;;;;;;;;4964704;28;20604;-82
2024/03/16 10:57:41;;;;;;;5.25;2.35;;;;;;;;;;4965662;28;20188;-82
2024/03/16 11:00:20;;;;;;;6.80;2.22;;;;;;;;;;4943914;28;20190;-82
2024/03/16 11:03:00;;;;;;;3.55;2.13;;;;;;;;;;4969670;28;20168;-82
2024/03/16 11:05:48;;;;;;;4.38;2.00;;;;;;;;;;4966147;28;20176;-81
2024/03/16 11:08:14;;;;;;;7.00;2.25;;;;;;;;;;4969596;28;20305;-82
2024/03/16 11:10:42;;;;;;;4.90;1.90;;;;;;;;;;4974905;28;20216;-81
2024/03/16 11:13:18;;;;;;;7.47;2.97;;;;;;;;;;4954253;28;20764;-81
2024/03/16 11:15:44;;;;;;;2.25;1.40;;;;;;;;;;4973109;28;20596;-81
2024/03/16 11:18:19;;;;;;;2.60;2.10;;;;;;;;;;4963838;28;20270;-81
2024/03/16 11:20:53;;;;;;;2.17;1.80;;;;;;;;;;4972907;28;20180;-81
2024/03/16 11:23:32;;;;;;;1.42;1.33;;;;;;;;;;4974728;28;20187;-81
2024/03/16 11:26:00;;;;;;;5.15;1.80;;;;;;;;;;4967698;28;20248;-81
2024/03/16 11:28:43;;;;;;;4.20;1.63;;;;;;;;;;4975219;28;20178;-81
2024/03/16 11:31:29;;;;;;;3.70;1.70;;;;;;;;;;4974371;28;20235;-81
2024/03/16 11:33:55;;;;;;;6.35;1.80;;;;;;;;;;4963199;28;20263;-81
2024/03/16 11:36:23;;;;;;;2.25;1.35;;;;;;;;;;4973421;28;20699;-81
2024/03/16 11:38:53;;;;;;;4.13;1.83;;;;;;;;;;4958490;28;20192;-81
2024/03/16 11:41:19;;;;;;;4.25;1.80;;;;;;;;;;4975063;28;20558;-81
2024/03/16 11:43:48;;;;;;;4.13;1.55;;;;;;;;;;4970256;28;20211;-80
2024/03/16 11:46:19;;;;;;;4.20;2.45;;;;;;;;;;4967174;28;20189;-79
2024/03/16 11:48:45;;;;;;;3.38;1.75;;;;;;;;;;4970676;28;20194;-80
2024/03/16 11:51:15;;;;;;;4.13;1.73;;;;;;;;;;4969794;28;20276;-81
2024/03/16 11:53:41;;;;;;;3.70;1.52;;;;;;;;;;4969552;28;20232;-81
2024/03/16 11:56:11;;;;;;;2.47;1.40;;;;;;;;;;4972107;28;20224;-80
2024/03/16 11:58:39;;;;;;;5.03;1.95;;;;;;;;;;4975289;28;20180;-79
2024/03/16 12:01:05;;;;;;;4.20;1.58;;;;;;;;;;4975045;28;20204;-80
2024/03/16 12:03:31;;;;;;;4.13;1.65;;;;;;;;;;4966923;28;20189;-81
2024/03/16 12:05:57;;;;;;;5.20;1.95;;;;;;;;;;4976302;28;20188;-80
2024/03/16 12:08:24;;;;;;;3.67;1.57;;;;;;;;;;4967756;28;20247;-80
2024/03/16 12:10:50;;;;;;;3.05;2.10;;;;;;;;;;4959020;28;20475;-79
2024/03/16 12:13:17;;;;;;;5.20;3.10;;;;;;;;;;4956406;28;20192;-79
2024/03/16 12:15:43;;;;;;;4.63;4.13;;;;;;;;;;4965871;28;20436;-80
2024/03/16 12:18:09;;;;;;;10.67;6.00;;;;;;;;;;4973425;28;20187;-80
2024/03/16 12:20:36;;;;;;;7.03;2.28;;;;;;;;;;4969976;28;20452;-80
2024/03/16 12:23:02;;;;;;;3.45;3.05;;;;;;;;;;4969356;28;20196;-81
2024/03/16 12:25:28;;;;;;;6.00;2.10;;;;;;;;;;4956611;28;20193;-81
2024/03/16 12:27:54;;;;;;;5.10;1.60;;;;;;;;;;4977242;28;20192;-81
2024/03/16 12:30:23;;;;;;;3.83;1.98;;;;;;;;;;4973932;28;20595;-81
2024/03/16 12:32:49;;;;;;;2.67;1.60;;;;;;;;;;4975804;28;20183;-80
2024/03/16 12:35:16;;;;;;;2.92;2.03;;;;;;;;;;4972260;28;20259;-81
2024/03/16 12:37:42;;;;;;;1.63;1.35;;;;;;;;;;4984917;28;20188;-82
2024/03/16 12:40:10;;;;;;;7.13;2.25;;;;;;;;;;4954163;28;20192;-81
2024/03/16 12:42:36;;;;;;;5.20;2.60;;;;;;;;;;4971836;28;20189;-81
2024/03/16 12:45:03;;;;;;;4.23;2.07;;;;;;;;;;4972546;28;20243;-81
2024/03/16 12:47:29;;;;;;;5.47;1.60;;;;;;;;;;4976816;28;20411;-81
2024/03/16 12:49:55;;;;;;;2.42;1.70;;;;;;;;;;4971930;28;20417;-81
2024/03/16 12:52:24;;;;;;;3.55;1.45;;;;;;;;;;4971497;28;20235;-81
2024/03/16 12:54:53;;;;;;;3.53;1.95;;;;;;;;;;4976827;28;20230;-81
2024/03/16 12:57:19;;;;;;;4.15;1.40;;;;;;;;;;4973174;28;20219;-81
2024/03/16 12:59:45;;;;;;;2.38;1.10;;;;;;;;;;4971891;28;20196;-82
2024/03/16 13:02:11;;;;;;;1.63;1.00;;;;;;;;;;4976601;28;20188;-82
2024/03/16 13:04:37;;;;;;;3.00;1.70;;;;;;;;;;4969887;28;20421;-80
2024/03/16 13:07:04;;;;;;;1.73;1.20;;;;;;;;;;4976755;28;20183;-81
2024/03/16 13:09:30;;;;;;;3.85;2.17;;;;;;;;;;4960281;28;20439;-82
2024/03/16 13:11:56;;;;;;;3.28;1.40;;;;;;;;;;4973896;28;20578;-81
2024/03/16 13:14:22;;;;;;;1.95;1.42;;;;;;;;;;4970286;28;20184;-81
2024/03/16 13:16:48;;;;;;;2.23;1.10;;;;;;;;;;4976502;28;20243;-80
2024/03/16 13:19:14;;;;;;;3.93;1.40;;;;;;;;;;4966216;28;20432;-80
2024/03/16 13:21:41;;;;;;;5.87;1.47;;;;;;;;;;4973441;28;20431;-81
2024/03/16 13:24:07;;;;;;;3.17;1.45;;;;;;;;;;4957227;28;20758;-81
2024/03/16 13:26:33;;;;;;;3.40;1.40;;;;;;;;;;4973283;28;20262;-81
2024/03/16 13:29:00;;;;;;;5.82;1.58;;;;;;;;;;4969901;28;20283;-81
2024/03/16 13:31:28;;;;;;;1.48;1.38;;;;;;;;;;4975550;28;20267;-80
2024/03/16 13:33:54;;;;;;;4.85;1.50;;;;;;;;;;4965339;28;20251;-81
2024/03/16 13:36:20;;;;;;;4.38;1.58;;;;;;;;;;4973611;28;20188;-80
2024/03/16 13:38:46;;;;;;;2.40;1.90;;;;;;;;;;4970060;28;20181;-81
2024/03/16 13:41:12;;;;;;;2.20;2.00;;;;;;;;;;4973929;28;20283;-81
2024/03/16 13:43:39;;;;;;;2.27;1.50;;;;;;;;;;4970386;28;20438;-81
2024/03/16 13:46:05;;;;;;;11.82;2.30;;;;;;;;;;4968912;28;20563;-81
2024/03/16 13:48:31;;;;;;;3.75;1.40;;;;;;;;;;4969569;28;20569;-82
2024/03/16 13:50:57;;;;;;;3.75;1.75;;;;;;;;;;4952745;28;20212;-81
2024/03/16 13:53:23;;;;;;;1.93;1.30;;;;;;;;;;4976914;28;20176;-81
2024/03/16 13:55:50;;;;;;;5.17;2.00;;;;;;;;;;4970228;28;20447;-81
2024/03/16 13:58:16;;;;;;;4.40;1.90;;;;;;;;;;4970919;28;20886;-82
2024/03/16 14:00:42;;;;;;;3.83;1.50;;;;;;;;;;4968549;28;20192;-81
2024/03/16 14:03:09;;;;;;;7.05;1.60;;;;;;;;;;4970054;28;20199;-81
2024/03/16 14:05:36;;;;;;;3.78;1.95;;;;;;;;;;4967702;28;20180;-80
2024/03/16 14:08:02;;;;;;;2.58;1.40;;;;;;;;;;4965857;28;20191;-81
2024/03/16 14:10:29;;;;;;;4.90;1.53;;;;;;;;;;4967274;28;20231;-81
2024/03/16 14:12:56;;;;;;;4.85;1.35;;;;;;;;;;4968992;28;20432;-81
2024/03/16 14:15:22;;;;;;;2.63;1.42;;;;;;;;;;4972031;28;20644;-81
2024/03/16 14:17:49;;;;;;;3.50;1.70;;;;;;;;;;4969594;28;20585;-80
2024/03/16 14:20:18;;;;;;;4.15;2.45;;;;;;;;;;4970685;28;20239;-81
2024/03/16 14:22:51;;;;;;;1.70;1.27;;;;;;;;;;4951275;29;20192;-81
2024/03/16 14:25:17;;;;;;;2.55;1.40;;;;;;;;;;4971738;28;20230;-81
2024/03/16 14:27:45;;;;;;;4.30;1.90;;;;;;;;;;4952566;28;20613;-81
2024/03/16 14:30:15;;;;;;;2.60;1.83;;;;;;;;;;4972853;28;20230;-81
2024/03/16 14:32:46;;;;;;;5.45;1.38;;;;;;;;;;4968644;28;20188;-80
2024/03/16 14:35:12;;;;;;;4.82;2.08;;;;;;;;;;4970648;28;20220;-81
2024/03/16 14:37:38;;;;;;;3.63;2.63;;;;;;;;;;4964036;28;20232;-81
2024/03/16 14:40:11;;;;;;;5.65;1.77;;;;;;;;;;4965182;28;20200;-81
2024/03/16 14:42:40;;;;;;;3.33;1.60;;;;;;;;;;4974241;28;20764;-81
2024/03/16 14:45:08;;;;;;;2.65;1.23;;;;;;;;;;4970511;28;20173;-81
2024/03/16 14:47:34;;;;;;;5.07;1.50;;;;;;;;;;4970386;28;20180;-81